createdAt,value
2019-03-28T00:02:22.771Z,13.63
2019-03-28T00:04:53.840Z,13.20
2019-03-28T00:07:24.341Z,13.63
2019-03-28T00:09:57.537Z,12.80
2019-03-28T00:12:27.360Z,13.93
2019-03-28T00:14:59.398Z,13.97
2019-03-28T00:17:29.341Z,13.67
2019-03-28T00:20:01.495Z,13.53
2019-03-28T00:22:42.178Z,13.53
2019-03-28T00:25:13.806Z,13.57
2019-03-28T00:27:44.201Z,13.83
2019-03-28T00:30:15.417Z,14.50
2019-03-28T00:32:47.870Z,13.07
2019-03-28T00:35:19.168Z,14.07
2019-03-28T00:38:00.092Z,12.97
2019-03-28T00:40:30.419Z,12.57
2019-03-28T00:43:01.101Z,14.17
2019-03-28T00:45:32.497Z,14.97
2019-03-28T00:48:02.374Z,14.40
2019-03-28T00:50:34.774Z,14.47
2019-03-28T00:53:04.555Z,13.97
2019-03-28T00:55:34.567Z,14.10
2019-03-28T00:58:05.645Z,14.57
2019-03-28T01:00:35.286Z,13.07
2019-03-28T01:03:07.030Z,13.10
2019-03-28T01:05:38.099Z,12.67
2019-03-28T01:08:07.706Z,14.07
2019-03-28T01:10:37.397Z,12.97
2019-03-28T01:13:07.266Z,14.40
2019-03-28T01:15:36.915Z,13.40
2019-03-28T01:18:07.583Z,15.13
2019-03-28T01:20:37.265Z,13.83
2019-03-28T01:23:06.842Z,14.83
2019-03-28T01:25:36.470Z,15.90
2019-03-28T01:28:10.349Z,14.00
2019-03-28T01:30:40.021Z,13.67
2019-03-28T01:33:09.619Z,14.43
2019-03-28T01:35:40.671Z,13.97
2019-03-28T01:38:10.351Z,13.50
2019-03-28T01:40:42.356Z,14.60
2019-03-28T01:43:12.134Z,15.50
2019-03-28T01:45:46.031Z,17.97
2019-03-28T01:48:17.084Z,17.53
2019-03-28T01:50:47.297Z,18.90
2019-03-28T01:53:16.868Z,17.50
2019-03-28T01:55:47.515Z,16.80
2019-03-28T01:58:19.193Z,15.90
2019-03-28T02:00:51.176Z,16.27
2019-03-28T02:03:20.895Z,14.90
2019-03-28T02:05:53.110Z,15.23
2019-03-28T02:08:24.884Z,14.30
2019-03-28T02:10:53.992Z,14.43
2019-03-28T02:13:23.684Z,15.80
2019-03-28T02:15:55.329Z,14.83
2019-03-28T02:18:29.223Z,16.47
2019-03-28T02:20:58.834Z,15.40
2019-03-28T02:23:29.982Z,14.40
2019-03-28T02:25:59.553Z,14.53
2019-03-28T02:28:29.305Z,15.10
2019-03-28T02:30:58.919Z,14.73
2019-03-28T02:33:30.814Z,14.97
2019-03-28T02:36:01.810Z,14.87
2019-03-28T02:38:32.337Z,14.77
2019-03-28T02:41:02.041Z,14.40
2019-03-28T02:43:31.672Z,13.17
2019-03-28T02:46:02.690Z,14.87
2019-03-28T02:48:32.534Z,14.10
2019-03-28T02:51:02.287Z,14.63
2019-03-28T02:53:31.999Z,14.23
2019-03-28T02:56:01.668Z,15.27
2019-03-28T02:58:31.258Z,15.43
2019-03-28T03:01:00.861Z,14.80
2019-03-28T03:03:30.456Z,15.83
2019-03-28T03:06:00.102Z,16.10
2019-03-28T03:08:29.693Z,16.47
2019-03-28T03:10:59.320Z,15.77
2019-03-28T03:13:31.236Z,14.33
2019-03-28T03:16:02.060Z,15.80
2019-03-28T03:18:31.643Z,14.90
2019-03-28T03:21:01.347Z,14.03
2019-03-28T03:23:30.971Z,15.33
2019-03-28T03:26:01.130Z,15.23
2019-03-28T03:28:30.695Z,15.77
2019-03-28T03:31:00.277Z,16.53
2019-03-28T03:33:30.113Z,16.07
2019-03-28T03:35:59.798Z,16.13
2019-03-28T03:38:29.383Z,16.83
2019-03-28T03:40:59.031Z,15.30
2019-03-28T03:43:30.895Z,16.37
2019-03-28T03:46:01.979Z,16.73
2019-03-28T03:48:31.602Z,15.27
2019-03-28T03:51:01.234Z,14.87
2019-03-28T03:53:30.839Z,14.37
2019-03-28T03:56:00.484Z,14.60
2019-03-28T03:58:30.093Z,15.10
2019-03-28T04:00:59.701Z,14.93
2019-03-28T04:03:29.655Z,16.23
2019-03-28T04:05:59.345Z,22.10
2019-03-28T04:08:29.364Z,20.43
2019-03-28T04:10:59.010Z,20.10
2019-03-28T04:13:29.659Z,22.10
2019-03-28T04:15:59.318Z,23.87
2019-03-28T04:18:28.937Z,21.40
2019-03-28T04:20:58.532Z,20.10
2019-03-28T04:23:28.380Z,20.13
2019-03-28T04:25:57.950Z,16.23
2019-03-28T04:28:32.149Z,16.33
2019-03-28T04:30:58.920Z,15.17
2019-03-28T04:33:28.832Z,15.77
2019-03-28T04:36:00.154Z,15.43
2019-03-28T04:38:29.772Z,14.27
2019-03-28T04:41:00.331Z,16.00
2019-03-28T04:43:30.040Z,15.23
2019-03-28T04:46:01.246Z,15.97
2019-03-28T04:48:30.909Z,16.03
2019-03-28T04:51:01.337Z,17.63
2019-03-28T04:53:30.928Z,17.57
2019-03-28T04:56:02.139Z,17.80
2019-03-28T04:58:43.756Z,16.73
2019-03-28T05:01:03.865Z,16.90
2019-03-28T05:03:33.523Z,16.13
2019-03-28T05:06:04.231Z,16.60
2019-03-28T05:08:33.860Z,15.00
2019-03-28T05:11:03.501Z,15.20
2019-03-28T05:13:33.171Z,15.30
2019-03-28T05:16:02.760Z,16.20
2019-03-28T05:18:32.422Z,15.47
2019-03-28T05:21:02.085Z,16.07
2019-03-28T05:23:33.748Z,16.07
2019-03-28T05:26:03.374Z,14.80
2019-03-28T05:28:33.013Z,14.93
2019-03-28T05:31:02.684Z,16.63
2019-03-28T05:33:32.322Z,17.23
2019-03-28T05:36:04.451Z,16.00
2019-03-28T05:38:33.968Z,18.13
2019-03-28T05:41:07.403Z,16.07
2019-03-28T05:43:37.177Z,15.93
2019-03-28T05:46:12.070Z,16.40
2019-03-28T05:48:41.730Z,15.57
2019-03-28T05:51:11.951Z,15.97
2019-03-28T05:53:43.966Z,15.03
2019-03-28T05:56:12.905Z,14.83
2019-03-28T05:58:42.541Z,15.23
2019-03-28T06:01:12.190Z,15.00
2019-03-28T06:03:42.467Z,15.57
2019-03-28T06:06:12.275Z,15.63
2019-03-28T06:08:41.890Z,15.77
2019-03-28T06:11:11.449Z,17.37
2019-03-28T06:13:41.099Z,17.33
2019-03-28T06:16:10.730Z,17.57
2019-03-28T06:18:40.336Z,20.23
2019-03-28T06:21:09.907Z,19.10
2019-03-28T06:23:39.638Z,19.00
2019-03-28T06:26:12.736Z,19.07
2019-03-28T06:28:44.014Z,18.77
2019-03-28T06:31:13.655Z,17.40
2019-03-28T06:33:44.850Z,18.93
2019-03-28T06:36:14.590Z,20.27
2019-03-28T06:38:44.347Z,18.47
2019-03-28T06:41:14.034Z,19.73
2019-03-28T06:43:44.912Z,18.67
2019-03-28T06:46:14.606Z,18.97
2019-03-28T06:48:44.257Z,19.13
2019-03-28T06:51:13.955Z,19.43
2019-03-28T06:53:43.674Z,20.23
2019-03-28T06:56:13.266Z,20.53
2019-03-28T06:58:42.891Z,19.33
2019-03-28T07:01:12.499Z,20.40
2019-03-28T07:03:42.240Z,20.10
2019-03-28T07:06:14.581Z,19.97
2019-03-28T07:08:44.247Z,20.07
2019-03-28T07:11:13.838Z,21.63
2019-03-28T07:13:43.435Z,20.80
2019-03-28T07:16:13.039Z,20.17
2019-03-28T07:18:42.696Z,21.47
2019-03-28T07:21:12.364Z,20.27
2019-03-28T07:26:16.732Z,21.00
2019-03-28T07:28:48.641Z,20.07
2019-03-28T07:31:18.531Z,19.97
2019-03-28T07:33:49.389Z,20.30
2019-03-28T07:36:18.904Z,22.00
2019-03-28T07:38:48.804Z,22.07
2019-03-28T07:41:20.221Z,22.20
2019-03-28T07:43:49.852Z,21.80
2019-03-28T07:46:19.468Z,22.40
2019-03-28T07:48:50.072Z,21.23
2019-03-28T07:51:20.761Z,20.83
2019-03-28T07:53:51.803Z,21.63
2019-03-28T07:56:21.710Z,20.93
2019-03-28T07:58:51.356Z,21.93
2019-03-28T08:01:20.995Z,21.87
2019-03-28T08:03:51.888Z,23.50
2019-03-28T08:06:21.496Z,22.23
2019-03-28T08:08:54.485Z,21.90
2019-03-28T08:11:24.318Z,22.13
2019-03-28T08:13:55.913Z,22.63
2019-03-28T08:16:28.699Z,21.97
2019-03-28T08:18:58.008Z,22.67
2019-03-28T08:21:28.532Z,22.10
2019-03-28T08:23:59.487Z,21.77
2019-03-28T08:26:30.416Z,22.57
2019-03-28T08:29:02.678Z,21.97
2019-03-28T08:31:32.310Z,23.20
2019-03-28T08:34:22.683Z,22.63
2019-03-28T08:36:52.393Z,23.40
2019-03-28T08:39:23.218Z,22.90
2019-03-28T08:41:53.132Z,23.40
2019-03-28T08:44:24.793Z,23.63
2019-03-28T08:46:55.025Z,24.40
2019-03-28T08:49:25.019Z,23.90
2019-03-28T08:51:54.874Z,23.23
2019-03-28T08:54:31.242Z,24.03
2019-03-28T08:57:01.265Z,23.70
2019-03-28T08:59:36.821Z,24.47
2019-03-28T09:02:06.568Z,24.43
2019-03-28T09:04:37.842Z,25.13
2019-03-28T09:07:08.398Z,23.93
2019-03-28T09:09:38.015Z,23.93
2019-03-28T09:12:08.474Z,23.97
2019-03-28T09:14:41.800Z,23.30
2019-03-28T09:17:11.440Z,24.60
2019-03-28T09:19:41.220Z,22.37
2019-03-28T09:22:10.792Z,21.50
2019-03-28T09:24:41.376Z,20.33
2019-03-28T09:27:10.999Z,20.10
2019-03-28T09:29:40.580Z,21.00
2019-03-28T09:32:12.166Z,20.53
2019-03-28T09:34:42.792Z,20.80
2019-03-28T09:37:12.376Z,20.00
2019-03-28T09:39:42.141Z,19.83
2019-03-28T09:42:11.732Z,19.40
2019-03-28T09:44:41.354Z,18.07
2019-03-28T09:47:11.006Z,16.47
2019-03-28T09:49:40.689Z,17.97
2019-03-28T09:52:12.023Z,17.30
2019-03-28T09:54:43.220Z,17.00
2019-03-28T09:57:12.800Z,16.20
2019-03-28T09:59:42.416Z,14.37
2019-03-28T10:02:13.529Z,13.60
2019-03-28T10:04:44.462Z,13.57
2019-03-28T10:07:14.072Z,14.00
2019-03-28T10:09:43.851Z,12.90
2019-03-28T10:12:13.425Z,14.20
2019-03-28T10:14:43.071Z,14.10
2019-03-28T10:17:12.708Z,14.10
2019-03-28T10:19:42.389Z,13.80
2019-03-28T10:22:14.422Z,13.63
2019-03-28T10:24:45.182Z,13.80
2019-03-28T10:27:14.742Z,13.27
2019-03-28T10:29:44.414Z,13.30
2019-03-28T10:32:13.938Z,12.70
2019-03-28T10:34:43.575Z,10.90
2019-03-28T10:37:13.190Z,9.43
2019-03-28T10:39:42.863Z,9.93
2019-03-28T10:42:12.455Z,9.17
2019-03-28T10:44:43.205Z,10.63
2019-03-28T10:47:12.860Z,9.10
2019-03-28T10:49:42.534Z,9.20
2019-03-28T10:52:12.211Z,9.03
2019-03-28T10:54:41.880Z,11.17
2019-03-28T10:57:15.475Z,13.10
2019-03-28T10:59:42.777Z,12.17
2019-03-28T11:02:12.661Z,12.87
2019-03-28T11:04:43.396Z,14.30
2019-03-28T11:07:12.986Z,15.07
2019-03-28T11:09:42.612Z,13.47
2019-03-28T11:12:12.242Z,11.27
2019-03-28T11:14:41.866Z,11.97
2019-03-28T11:17:11.460Z,12.17
2019-03-28T11:19:41.033Z,14.17
2019-03-28T11:22:10.610Z,16.07
2019-03-28T11:24:42.028Z,14.67
2019-03-28T11:27:11.652Z,15.97
2019-03-28T11:29:43.083Z,14.77
2019-03-28T11:32:12.729Z,13.97
2019-03-28T11:34:43.615Z,14.00
2019-03-28T11:37:25.273Z,15.57
2019-03-28T11:39:44.543Z,14.43
2019-03-28T11:42:15.264Z,14.20
2019-03-28T11:44:46.161Z,13.37
2019-03-28T11:47:15.792Z,14.50
2019-03-28T11:49:45.392Z,13.73
2019-03-28T11:52:15.003Z,13.40
2019-03-28T11:54:44.627Z,13.90
2019-03-28T11:57:15.766Z,14.43
2019-03-28T11:59:45.830Z,14.77
2019-03-28T12:02:20.114Z,13.00
2019-03-28T12:04:48.399Z,12.07
2019-03-28T12:07:17.970Z,12.00
2019-03-28T12:09:49.040Z,13.27
2019-03-28T12:12:18.660Z,13.23
2019-03-28T12:14:49.580Z,12.97
2019-03-28T12:17:19.242Z,12.70
2019-03-28T12:19:49.396Z,12.13
2019-03-28T12:22:21.343Z,11.93
2019-03-28T12:24:52.025Z,12.37
2019-03-28T12:27:21.637Z,12.03
2019-03-28T12:29:51.332Z,11.60
2019-03-28T12:32:20.911Z,11.27
2019-03-28T12:34:51.769Z,9.50
2019-03-28T12:37:21.433Z,10.47
2019-03-28T12:39:51.070Z,9.20
2019-03-28T12:42:20.625Z,9.30
2019-03-28T12:44:56.977Z,9.07
2019-03-28T12:47:21.650Z,10.00
2019-03-28T12:49:51.353Z,9.93
2019-03-28T12:52:23.303Z,10.40
2019-03-28T12:54:54.758Z,10.97
2019-03-28T12:57:24.502Z,10.00
2019-03-28T12:59:54.112Z,10.93
2019-03-28T13:02:31.462Z,11.57
2019-03-28T13:04:59.013Z,10.27
2019-03-28T13:07:31.647Z,9.63
2019-03-28T13:10:02.117Z,9.17
2019-03-28T13:12:32.022Z,9.23
2019-03-28T13:15:04.779Z,8.93
2019-03-28T13:17:34.440Z,10.07
2019-03-28T13:20:04.581Z,8.80
2019-03-28T13:22:34.168Z,8.07
2019-03-28T13:25:04.827Z,9.43
2019-03-28T13:27:34.938Z,8.20
2019-03-28T13:30:06.100Z,8.47
2019-03-28T13:32:41.789Z,8.10
2019-03-28T13:35:10.932Z,9.23
2019-03-28T13:37:40.485Z,7.50
2019-03-28T13:40:12.760Z,8.17
2019-03-28T13:42:42.350Z,8.10
2019-03-28T13:45:12.056Z,8.90
2019-03-28T13:47:44.023Z,8.40
2019-03-28T13:50:13.639Z,10.67
2019-03-28T13:52:43.302Z,8.40
2019-03-28T13:55:12.901Z,9.00
2019-03-28T13:57:43.570Z,9.70
2019-03-28T14:00:13.212Z,9.53
2019-03-28T14:02:54.846Z,9.87
2019-03-28T14:05:15.929Z,8.80
2019-03-28T14:07:45.535Z,9.63
2019-03-28T14:10:15.167Z,9.63
2019-03-28T14:12:44.776Z,10.07
2019-03-28T14:15:14.360Z,9.40
2019-03-28T14:17:43.940Z,9.10
2019-03-28T14:20:13.592Z,8.87
2019-03-28T14:22:43.178Z,8.73
2019-03-28T14:25:12.807Z,9.03
2019-03-28T14:27:42.477Z,9.00
2019-03-28T14:30:12.123Z,8.37
2019-03-28T14:32:52.421Z,7.73
2019-03-28T14:35:14.407Z,7.03
2019-03-28T14:37:44.005Z,6.50
2019-03-28T14:40:13.631Z,9.27
2019-03-28T14:42:43.255Z,8.47
2019-03-28T14:45:12.942Z,7.47
2019-03-28T14:47:43.843Z,7.17
2019-03-28T14:50:18.804Z,7.93
2019-03-28T14:52:49.679Z,8.37
2019-03-28T14:55:19.428Z,8.43
2019-03-28T14:57:49.057Z,8.63
2019-03-28T15:00:34.985Z,7.77
2019-03-28T15:03:09.221Z,6.67
2019-03-28T15:05:40.099Z,6.00
2019-03-28T15:08:14.072Z,5.37
2019-03-28T15:10:43.791Z,5.50
2019-03-28T15:13:13.375Z,4.93
2019-03-28T15:15:43.024Z,4.90
2019-03-28T15:18:12.619Z,5.67
2019-03-28T15:20:42.228Z,4.97
2019-03-28T15:23:11.888Z,4.60
2019-03-28T15:25:41.613Z,4.57
2019-03-28T15:28:11.235Z,5.33
2019-03-28T15:30:40.890Z,4.50
2019-03-28T15:33:10.623Z,4.50
2019-03-28T15:35:40.179Z,4.37
2019-03-28T15:38:09.885Z,4.17
2019-03-28T15:40:39.533Z,10.33
2019-03-28T15:43:11.339Z,4.30
2019-03-28T15:45:42.402Z,3.67
2019-03-28T15:48:12.422Z,4.07
2019-03-28T15:50:43.426Z,3.80
2019-03-28T15:53:15.134Z,4.40
2019-03-28T15:55:48.631Z,4.10
2019-03-28T15:58:23.563Z,4.40
2019-03-28T16:00:50.303Z,4.37
2019-03-28T16:03:20.101Z,4.23
2019-03-28T16:05:58.157Z,4.30
2019-03-28T16:08:22.408Z,5.23
2019-03-28T16:10:52.176Z,5.30
2019-03-28T16:13:22.796Z,4.87
2019-03-28T16:15:53.011Z,5.03
2019-03-28T16:18:22.770Z,5.50
2019-03-28T16:20:53.565Z,6.10
2019-03-28T16:23:23.108Z,6.93
2019-03-28T16:25:52.835Z,6.13
2019-03-28T16:28:22.454Z,5.70
2019-03-28T16:30:52.085Z,7.10
2019-03-28T16:33:21.694Z,5.87
2019-03-28T16:35:51.532Z,6.70
2019-03-28T16:38:21.818Z,9.43
2019-03-28T16:40:51.697Z,17.87
2019-03-28T16:43:21.339Z,8.60
2019-03-28T16:45:52.037Z,7.40
2019-03-28T16:48:21.764Z,8.23
2019-03-28T16:50:51.531Z,8.63
2019-03-28T16:53:21.133Z,7.47
2019-03-28T16:55:50.909Z,7.13
2019-03-28T16:58:20.727Z,7.97
2019-03-28T17:00:50.564Z,8.13
2019-03-28T17:03:21.475Z,8.47
2019-03-28T17:05:52.357Z,8.10
2019-03-28T17:08:22.037Z,8.30
2019-03-28T17:10:52.835Z,8.33
2019-03-28T17:13:23.454Z,9.30
2019-03-28T17:15:54.526Z,8.47
2019-03-28T17:18:24.286Z,9.43
2019-03-28T17:20:55.145Z,8.23
2019-03-28T17:23:25.046Z,8.53
2019-03-28T17:25:56.021Z,7.50
2019-03-28T17:28:25.658Z,8.63
2019-03-28T17:30:55.304Z,7.83
2019-03-28T17:33:24.887Z,9.57
2019-03-28T17:35:55.469Z,10.40
2019-03-28T17:38:25.212Z,9.07
2019-03-28T17:40:55.208Z,8.70
2019-03-28T17:43:24.917Z,9.20
2019-03-28T17:45:54.482Z,7.93
2019-03-28T17:48:24.422Z,7.90
2019-03-28T17:50:56.314Z,7.63
2019-03-28T17:53:26.017Z,7.27
2019-03-28T17:55:57.179Z,8.57
2019-03-28T17:58:27.275Z,7.20
2019-03-28T18:00:56.903Z,7.37
2019-03-28T18:03:31.471Z,7.00
2019-03-28T18:06:00.431Z,5.97
2019-03-28T18:08:30.447Z,6.57
2019-03-28T18:11:00.499Z,7.00
2019-03-28T18:13:39.647Z,7.07
2019-03-28T18:16:11.988Z,7.50
2019-03-28T18:18:41.650Z,7.53
2019-03-28T18:21:11.299Z,8.40
2019-03-28T18:23:40.992Z,7.97
2019-03-28T18:26:10.601Z,7.37
2019-03-28T18:28:40.176Z,6.97
2019-03-28T18:31:09.914Z,8.00
2019-03-28T18:33:39.527Z,7.10
2019-03-28T18:36:12.856Z,7.40
2019-03-28T18:38:43.259Z,14.23
2019-03-28T18:41:13.268Z,12.83
2019-03-28T18:43:43.342Z,12.20
2019-03-28T18:46:15.941Z,7.70
2019-03-28T18:48:45.934Z,7.80
2019-03-28T18:51:17.666Z,6.60
2019-03-28T18:53:47.414Z,7.47
2019-03-28T18:56:18.343Z,5.03
2019-03-28T18:58:48.510Z,11.17
2019-03-28T19:01:18.136Z,6.27
2019-03-28T19:03:47.884Z,8.27
2019-03-28T19:06:18.562Z,10.30
2019-03-28T19:08:49.618Z,10.97
2019-03-28T19:11:19.300Z,14.30
2019-03-28T19:13:49.056Z,14.63
2019-03-28T19:16:21.867Z,7.10
2019-03-28T19:18:51.940Z,6.80
2019-03-28T19:21:21.776Z,6.90
2019-03-28T19:23:51.465Z,5.40
2019-03-28T19:26:21.255Z,10.27
2019-03-28T19:29:03.687Z,7.50
2019-03-28T19:31:33.448Z,7.73
2019-03-28T19:34:04.160Z,6.67
2019-03-28T19:36:33.788Z,5.70
2019-03-28T19:39:04.465Z,5.97
2019-03-28T19:41:34.084Z,5.73
2019-03-28T19:44:03.891Z,14.70
2019-03-28T19:46:33.530Z,23.63
2019-03-28T19:49:03.165Z,9.90
2019-03-28T19:51:33.334Z,7.27
2019-03-28T19:54:03.609Z,7.10
2019-03-28T19:56:33.263Z,6.77
2019-03-28T19:59:02.925Z,5.97
2019-03-28T20:01:32.641Z,6.20
2019-03-28T20:04:02.309Z,4.90
2019-03-28T20:06:31.887Z,5.33
2019-03-28T20:09:15.354Z,5.57
2019-03-28T20:11:33.133Z,5.07
2019-03-28T20:14:02.786Z,5.50
2019-03-28T20:16:32.341Z,4.80
2019-03-28T20:19:03.538Z,5.13
2019-03-28T20:21:33.160Z,5.70
2019-03-28T20:24:02.786Z,5.50
2019-03-28T20:26:32.370Z,5.83
2019-03-28T20:29:02.374Z,5.40
2019-03-28T20:31:32.062Z,5.60
2019-03-28T20:34:01.852Z,5.57
2019-03-28T20:36:38.594Z,5.83
2019-03-28T20:39:07.445Z,5.30
2019-03-28T20:41:37.387Z,6.00
2019-03-28T20:44:11.506Z,5.60
2019-03-28T20:46:40.855Z,5.60
2019-03-28T20:49:11.970Z,6.13
2019-03-28T20:51:41.803Z,6.23
2019-03-28T20:54:13.026Z,5.87
2019-03-28T20:56:43.256Z,6.27
2019-03-28T20:59:15.213Z,6.70
2019-03-28T21:01:45.294Z,6.63
2019-03-28T21:04:30.315Z,6.43
2019-03-28T21:06:49.677Z,7.53
2019-03-28T21:09:19.319Z,6.13
2019-03-28T21:11:49.955Z,6.23
2019-03-28T21:14:19.581Z,6.30
2019-03-28T21:16:49.243Z,5.97
2019-03-28T21:19:19.206Z,6.50
2019-03-28T21:21:48.844Z,6.37
2019-03-28T21:24:18.653Z,6.27
2019-03-28T21:26:48.311Z,6.80
2019-03-28T21:29:18.143Z,6.90
2019-03-28T21:31:50.168Z,6.83
2019-03-28T21:34:19.182Z,6.63
2019-03-28T21:36:48.789Z,6.63
2019-03-28T21:39:18.602Z,7.43
2019-03-28T21:41:49.734Z,7.97
2019-03-28T21:44:19.389Z,10.57
2019-03-28T21:46:49.351Z,8.87
2019-03-28T21:49:19.475Z,7.30
2019-03-28T21:51:49.411Z,7.27
2019-03-28T21:54:19.050Z,6.93
2019-03-28T21:56:49.857Z,6.77
2019-03-28T21:59:20.945Z,6.70
2019-03-28T22:01:52.472Z,7.40
2019-03-28T22:04:22.277Z,7.23
2019-03-28T22:06:54.232Z,6.40
2019-03-28T22:09:24.246Z,6.70
2019-03-28T22:11:55.701Z,6.90
2019-03-28T22:14:25.463Z,6.60
2019-03-28T22:16:55.149Z,6.60
2019-03-28T22:19:25.907Z,6.50
2019-03-28T22:21:56.608Z,7.17
2019-03-28T22:24:26.345Z,7.60
2019-03-28T22:26:56.292Z,7.63
2019-03-28T22:29:26.171Z,7.43
2019-03-28T22:31:57.478Z,7.90
2019-03-28T22:34:28.373Z,7.07
2019-03-28T22:36:59.961Z,7.10
2019-03-28T22:39:29.516Z,7.43
2019-03-28T22:42:02.304Z,7.33
2019-03-28T22:44:33.889Z,7.50
2019-03-28T22:47:03.355Z,7.10
2019-03-28T22:49:33.183Z,7.10
2019-03-28T22:52:03.146Z,8.10
2019-03-28T22:54:32.745Z,8.17
2019-03-28T22:57:02.479Z,8.10
2019-03-28T22:59:32.574Z,8.50
2019-03-28T23:02:02.902Z,8.07
2019-03-28T23:04:32.669Z,7.83
2019-03-28T23:07:10.854Z,7.23
2019-03-28T23:09:34.864Z,7.00
2019-03-28T23:12:05.480Z,7.80
2019-03-28T23:14:35.120Z,7.73
2019-03-28T23:17:04.721Z,7.80
2019-03-28T23:19:34.436Z,7.70
2019-03-28T23:22:04.248Z,7.67
2019-03-28T23:24:34.201Z,7.40
2019-03-28T23:27:03.866Z,7.60
2019-03-28T23:29:33.459Z,7.40
2019-03-28T23:32:03.189Z,7.33
2019-03-28T23:34:33.731Z,7.60
2019-03-28T23:37:03.625Z,7.50
2019-03-28T23:39:37.180Z,8.03
2019-03-28T23:42:08.737Z,7.90
2019-03-28T23:44:39.497Z,8.33
2019-03-28T23:47:09.075Z,8.73
2019-03-28T23:49:38.931Z,7.90
2019-03-28T23:52:12.713Z,7.40
2019-03-28T23:54:42.361Z,7.10
2019-03-28T23:57:19.561Z,7.17
2019-03-28T23:59:51.554Z,7.40
